sensor_id;sensor_type;location;lat;lon;timestamp;temperature;humidity
18141;DHT22;9196;49.194;12.526;2023-10-08T00:01:09;15.60;99.90
18141;DHT22;9196;49.194;12.526;2023-10-08T00:03:39;15.60;99.90
18141;DHT22;9196;49.194;12.526;2023-10-08T00:06:14;15.60;99.90
18141;DHT22;9196;49.194;12.526;2023-10-08T00:08:41;15.60;99.90
18141;DHT22;9196;49.194;12.526;2023-10-08T00:11:08;15.60;99.90
18141;DHT22;9196;49.194;12.526;2023-10-08T00:13:36;15.70;99.90
18141;DHT22;9196;49.194;12.526;2023-10-08T00:16:05;15.70;99.90
18141;DHT22;9196;49.194;12.526;2023-10-08T00:18:37;15.70;99.90
18141;DHT22;9196;49.194;12.526;2023-10-08T00:21:06;15.70;99.90
18141;DHT22;9196;49.194;12.526;2023-10-08T00:23:42;15.70;99.90
18141;DHT22;9196;49.194;12.526;2023-10-08T00:26:17;15.70;99.90
18141;DHT22;9196;49.194;12.526;2023-10-08T00:28:55;15.70;99.90
18141;DHT22;9196;49.194;12.526;2023-10-08T00:31:23;15.60;99.90
18141;DHT22;9196;49.194;12.526;2023-10-08T00:33:57;15.60;99.90
18141;DHT22;9196;49.194;12.526;2023-10-08T00:36:24;15.60;99.90
18141;DHT22;9196;49.194;12.526;2023-10-08T00:38:51;15.60;99.90
18141;DHT22;9196;49.194;12.526;2023-10-08T00:41:20;15.60;99.90
18141;DHT22;9196;49.194;12.526;2023-10-08T00:43:48;15.60;99.90
18141;DHT22;9196;49.194;12.526;2023-10-08T00:46:17;15.60;99.90
18141;DHT22;9196;49.194;12.526;2023-10-08T00:48:49;15.60;99.90
18141;DHT22;9196;49.194;12.526;2023-10-08T00:51:19;15.50;99.90
18141;DHT22;9196;49.194;12.526;2023-10-08T00:54:01;15.50;99.90
18141;DHT22;9196;49.194;12.526;2023-10-08T00:56:36;15.60;99.90
18141;DHT22;9196;49.194;12.526;2023-10-08T00:59:18;15.70;99.90
18141;DHT22;9196;49.194;12.526;2023-10-08T01:01:48;15.70;99.90
18141;DHT22;9196;49.194;12.526;2023-10-08T01:04:17;15.70;99.90
18141;DHT22;9196;49.194;12.526;2023-10-08T01:06:50;15.80;99.90
18141;DHT22;9196;49.194;12.526;2023-10-08T01:09:20;15.80;99.90
18141;DHT22;9196;49.194;12.526;2023-10-08T01:12:08;15.80;99.90
18141;DHT22;9196;49.194;12.526;2023-10-08T01:14:37;15.70;99.90
18141;DHT22;9196;49.194;12.526;2023-10-08T01:17:07;15.60;99.90
18141;DHT22;9196;49.194;12.526;2023-10-08T01:19:35;15.50;99.90
18141;DHT22;9196;49.194;12.526;2023-10-08T01:22:09;15.50;99.90
18141;DHT22;9196;49.194;12.526;2023-10-08T01:24:42;15.50;99.90
18141;DHT22;9196;49.194;12.526;2023-10-08T01:27:09;15.50;99.90
18141;DHT22;9196;49.194;12.526;2023-10-08T01:29:38;15.50;99.90
18141;DHT22;9196;49.194;12.526;2023-10-08T01:32:05;15.60;99.90
18141;DHT22;9196;49.194;12.526;2023-10-08T01:34:36;15.60;99.90
18141;DHT22;9196;49.194;12.526;2023-10-08T01:37:04;15.60;99.90
18141;DHT22;9196;49.194;12.526;2023-10-08T01:39:37;15.70;99.90
18141;DHT22;9196;49.194;12.526;2023-10-08T01:42:05;15.70;99.90
18141;DHT22;9196;49.194;12.526;2023-10-08T01:44:32;15.70;99.90
18141;DHT22;9196;49.194;12.526;2023-10-08T01:47:00;15.70;99.90
18141;DHT22;9196;49.194;12.526;2023-10-08T01:49:29;15.70;99.90
18141;DHT22;9196;49.194;12.526;2023-10-08T01:51:59;15.70;99.90
18141;DHT22;9196;49.194;12.526;2023-10-08T01:54:31;15.70;99.90
18141;DHT22;9196;49.194;12.526;2023-10-08T01:57:02;15.80;99.90
18141;DHT22;9196;49.194;12.526;2023-10-08T01:59:31;15.80;99.90
18141;DHT22;9196;49.194;12.526;2023-10-08T02:01:59;15.90;99.90
18141;DHT22;9196;49.194;12.526;2023-10-08T02:04:26;15.80;99.90
18141;DHT22;9196;49.194;12.526;2023-10-08T02:06:52;15.80;99.90
18141;DHT22;9196;49.194;12.526;2023-10-08T02:09:19;15.80;99.90
18141;DHT22;9196;49.194;12.526;2023-10-08T02:11:52;15.80;99.90
18141;DHT22;9196;49.194;12.526;2023-10-08T02:14:21;15.80;99.90
18141;DHT22;9196;49.194;12.526;2023-10-08T02:16:48;15.70;99.90
18141;DHT22;9196;49.194;12.526;2023-10-08T02:19:18;15.80;99.90
18141;DHT22;9196;49.194;12.526;2023-10-08T02:21:52;15.80;99.90
18141;DHT22;9196;49.194;12.526;2023-10-08T02:24:20;15.70;99.90
18141;DHT22;9196;49.194;12.526;2023-10-08T02:26:50;15.80;99.90
18141;DHT22;9196;49.194;12.526;2023-10-08T02:29:17;15.70;99.90
18141;DHT22;9196;49.194;12.526;2023-10-08T02:31:45;15.60;99.90
18141;DHT22;9196;49.194;12.526;2023-10-08T02:34:13;15.60;99.90
18141;DHT22;9196;49.194;12.526;2023-10-08T02:36:41;15.60;99.90
18141;DHT22;9196;49.194;12.526;2023-10-08T02:39:08;15.60;99.90
18141;DHT22;9196;49.194;12.526;2023-10-08T02:41:42;15.50;99.90
18141;DHT22;9196;49.194;12.526;2023-10-08T02:44:11;15.50;99.90
18141;DHT22;9196;49.194;12.526;2023-10-08T02:46:40;15.50;99.90
18141;DHT22;9196;49.194;12.526;2023-10-08T02:49:09;15.60;99.90
18141;DHT22;9196;49.194;12.526;2023-10-08T02:51:38;15.60;99.90
18141;DHT22;9196;49.194;12.526;2023-10-08T02:54:07;15.60;99.90
18141;DHT22;9196;49.194;12.526;2023-10-08T02:56:42;15.60;99.90
18141;DHT22;9196;49.194;12.526;2023-10-08T02:59:10;15.50;99.90
18141;DHT22;9196;49.194;12.526;2023-10-08T03:01:37;15.50;99.90
18141;DHT22;9196;49.194;12.526;2023-10-08T03:04:05;15.50;99.90
18141;DHT22;9196;49.194;12.526;2023-10-08T03:06:42;15.50;99.90
18141;DHT22;9196;49.194;12.526;2023-10-08T03:09:08;15.50;99.90
18141;DHT22;9196;49.194;12.526;2023-10-08T03:11:35;15.50;99.90
18141;DHT22;9196;49.194;12.526;2023-10-08T03:14:02;15.60;99.90
18141;DHT22;9196;49.194;12.526;2023-10-08T03:16:30;15.60;99.90
18141;DHT22;9196;49.194;12.526;2023-10-08T03:19:00;15.60;99.90
18141;DHT22;9196;49.194;12.526;2023-10-08T03:21:31;15.60;99.90
18141;DHT22;9196;49.194;12.526;2023-10-08T03:24:16;15.60;99.90
18141;DHT22;9196;49.194;12.526;2023-10-08T03:27:03;15.60;99.90
18141;DHT22;9196;49.194;12.526;2023-10-08T03:29:38;15.60;99.90
18141;DHT22;9196;49.194;12.526;2023-10-08T03:32:08;15.60;99.90
18141;DHT22;9196;49.194;12.526;2023-10-08T03:34:39;15.60;99.90
18141;DHT22;9196;49.194;12.526;2023-10-08T03:37:09;15.60;99.90
18141;DHT22;9196;49.194;12.526;2023-10-08T03:39:37;15.60;99.90
18141;DHT22;9196;49.194;12.526;2023-10-08T03:42:26;15.60;99.90
18141;DHT22;9196;49.194;12.526;2023-10-08T03:45:06;15.60;99.90
18141;DHT22;9196;49.194;12.526;2023-10-08T03:47:38;15.60;99.90
18141;DHT22;9196;49.194;12.526;2023-10-08T03:50:06;15.60;99.90
18141;DHT22;9196;49.194;12.526;2023-10-08T03:52:35;15.60;99.90
18141;DHT22;9196;49.194;12.526;2023-10-08T03:55:06;15.60;99.90
18141;DHT22;9196;49.194;12.526;2023-10-08T03:57:52;15.50;99.90
18141;DHT22;9196;49.194;12.526;2023-10-08T04:00:23;15.50;99.90
18141;DHT22;9196;49.194;12.526;2023-10-08T04:02:57;15.40;99.90
18141;DHT22;9196;49.194;12.526;2023-10-08T04:05:26;15.40;99.90
18141;DHT22;9196;49.194;12.526;2023-10-08T04:07:58;15.40;99.90
18141;DHT22;9196;49.194;12.526;2023-10-08T04:10:43;15.40;99.90
18141;DHT22;9196;49.194;12.526;2023-10-08T04:13:30;15.30;99.90
18141;DHT22;9196;49.194;12.526;2023-10-08T04:15:57;15.20;99.90
18141;DHT22;9196;49.194;12.526;2023-10-08T04:18:24;15.20;99.90
18141;DHT22;9196;49.194;12.526;2023-10-08T04:20:53;15.20;99.90
18141;DHT22;9196;49.194;12.526;2023-10-08T04:23:30;15.20;99.90
18141;DHT22;9196;49.194;12.526;2023-10-08T04:25:58;15.10;99.90
18141;DHT22;9196;49.194;12.526;2023-10-08T04:28:25;15.00;99.90
18141;DHT22;9196;49.194;12.526;2023-10-08T04:31:00;14.90;99.90
18141;DHT22;9196;49.194;12.526;2023-10-08T04:33:41;14.90;99.90
18141;DHT22;9196;49.194;12.526;2023-10-08T04:36:08;14.80;99.90
18141;DHT22;9196;49.194;12.526;2023-10-08T04:38:35;14.80;99.90
18141;DHT22;9196;49.194;12.526;2023-10-08T04:41:07;14.80;99.90
18141;DHT22;9196;49.194;12.526;2023-10-08T04:43:35;14.80;99.90
18141;DHT22;9196;49.194;12.526;2023-10-08T04:46:04;14.90;99.90
18141;DHT22;9196;49.194;12.526;2023-10-08T04:48:44;14.90;99.90
18141;DHT22;9196;49.194;12.526;2023-10-08T04:51:11;14.90;99.90
18141;DHT22;9196;49.194;12.526;2023-10-08T04:53:39;14.90;99.90
18141;DHT22;9196;49.194;12.526;2023-10-08T04:56:11;14.90;99.90
18141;DHT22;9196;49.194;12.526;2023-10-08T04:58:42;14.90;99.90
18141;DHT22;9196;49.194;12.526;2023-10-08T05:01:12;14.90;99.90
18141;DHT22;9196;49.194;12.526;2023-10-08T05:03:47;15.00;99.90
18141;DHT22;9196;49.194;12.526;2023-10-08T05:06:32;15.00;99.90
18141;DHT22;9196;49.194;12.526;2023-10-08T05:09:16;15.10;99.90
18141;DHT22;9196;49.194;12.526;2023-10-08T05:11:51;15.20;99.90
18141;DHT22;9196;49.194;12.526;2023-10-08T05:14:36;15.20;99.90
18141;DHT22;9196;49.194;12.526;2023-10-08T05:17:11;15.30;99.90
18141;DHT22;9196;49.194;12.526;2023-10-08T05:19:48;15.30;99.90
18141;DHT22;9196;49.194;12.526;2023-10-08T05:22:26;15.30;99.90
18141;DHT22;9196;49.194;12.526;2023-10-08T05:25:21;15.40;99.90
18141;DHT22;9196;49.194;12.526;2023-10-08T05:28:07;15.30;99.90
18141;DHT22;9196;49.194;12.526;2023-10-08T05:30:37;15.30;99.90
18141;DHT22;9196;49.194;12.526;2023-10-08T05:33:08;15.30;99.90
18141;DHT22;9196;49.194;12.526;2023-10-08T05:35:52;15.40;99.90
18141;DHT22;9196;49.194;12.526;2023-10-08T05:38:28;15.40;99.90
18141;DHT22;9196;49.194;12.526;2023-10-08T05:41:14;15.40;99.90
18141;DHT22;9196;49.194;12.526;2023-10-08T05:43:55;15.40;99.90
18141;DHT22;9196;49.194;12.526;2023-10-08T05:46:39;15.30;99.90
18141;DHT22;9196;49.194;12.526;2023-10-08T05:49:12;15.30;99.90
18141;DHT22;9196;49.194;12.526;2023-10-08T05:51:52;15.30;99.90
18141;DHT22;9196;49.194;12.526;2023-10-08T05:54:47;15.20;99.90
18141;DHT22;9196;49.194;12.526;2023-10-08T05:57:40;15.30;99.90
18141;DHT22;9196;49.194;12.526;2023-10-08T06:00:14;15.30;99.90
18141;DHT22;9196;49.194;12.526;2023-10-08T06:02:58;15.30;99.90
18141;DHT22;9196;49.194;12.526;2023-10-08T06:05:37;15.50;99.90
18141;DHT22;9196;49.194;12.526;2023-10-08T06:08:30;15.40;99.90
18141;DHT22;9196;49.194;12.526;2023-10-08T06:11:15;15.40;99.90
18141;DHT22;9196;49.194;12.526;2023-10-08T06:13:54;15.50;99.90
18141;DHT22;9196;49.194;12.526;2023-10-08T06:16:27;15.50;99.90
18141;DHT22;9196;49.194;12.526;2023-10-08T06:19:12;15.60;99.90
18141;DHT22;9196;49.194;12.526;2023-10-08T06:21:40;15.60;99.90
18141;DHT22;9196;49.194;12.526;2023-10-08T06:24:08;15.70;99.90
18141;DHT22;9196;49.194;12.526;2023-10-08T06:26:38;15.70;99.90
18141;DHT22;9196;49.194;12.526;2023-10-08T06:29:12;15.70;99.90
18141;DHT22;9196;49.194;12.526;2023-10-08T06:31:54;15.70;99.90
18141;DHT22;9196;49.194;12.526;2023-10-08T06:34:21;15.80;99.90
18141;DHT22;9196;49.194;12.526;2023-10-08T06:36:51;15.80;99.90
18141;DHT22;9196;49.194;12.526;2023-10-08T06:39:20;15.80;99.90
18141;DHT22;9196;49.194;12.526;2023-10-08T06:41:52;15.80;99.90
18141;DHT22;9196;49.194;12.526;2023-10-08T06:44:19;15.80;99.90
18141;DHT22;9196;49.194;12.526;2023-10-08T06:46:46;16.00;99.90
18141;DHT22;9196;49.194;12.526;2023-10-08T06:49:19;16.00;99.90
18141;DHT22;9196;49.194;12.526;2023-10-08T06:51:50;16.00;99.90
18141;DHT22;9196;49.194;12.526;2023-10-08T06:54:17;16.00;99.90
18141;DHT22;9196;49.194;12.526;2023-10-08T06:56:44;16.10;99.90
18141;DHT22;9196;49.194;12.526;2023-10-08T06:59:17;16.10;99.90
18141;DHT22;9196;49.194;12.526;2023-10-08T07:01:44;16.10;99.90
18141;DHT22;9196;49.194;12.526;2023-10-08T07:04:13;16.10;99.90
18141;DHT22;9196;49.194;12.526;2023-10-08T07:06:42;16.10;99.90
18141;DHT22;9196;49.194;12.526;2023-10-08T07:09:11;16.10;99.90
18141;DHT22;9196;49.194;12.526;2023-10-08T07:11:49;16.20;99.90
18141;DHT22;9196;49.194;12.526;2023-10-08T07:14:20;16.20;99.90
18141;DHT22;9196;49.194;12.526;2023-10-08T07:16:48;16.30;99.90
18141;DHT22;9196;49.194;12.526;2023-10-08T07:19:18;16.30;99.90
18141;DHT22;9196;49.194;12.526;2023-10-08T07:21:46;16.30;99.90
18141;DHT22;9196;49.194;12.526;2023-10-08T07:24:15;16.30;99.90
18141;DHT22;9196;49.194;12.526;2023-10-08T07:26:43;16.30;99.90
18141;DHT22;9196;49.194;12.526;2023-10-08T07:29:13;16.30;99.90
18141;DHT22;9196;49.194;12.526;2023-10-08T07:31:43;16.30;99.90
18141;DHT22;9196;49.194;12.526;2023-10-08T07:34:14;16.40;99.90
18141;DHT22;9196;49.194;12.526;2023-10-08T07:36:54;16.40;99.90
18141;DHT22;9196;49.194;12.526;2023-10-08T07:39:22;16.40;99.90
18141;DHT22;9196;49.194;12.526;2023-10-08T07:42:00;16.40;99.90
18141;DHT22;9196;49.194;12.526;2023-10-08T07:44:27;16.40;99.90
18141;DHT22;9196;49.194;12.526;2023-10-08T07:46:54;16.40;99.90
18141;DHT22;9196;49.194;12.526;2023-10-08T07:49:21;16.50;99.90
18141;DHT22;9196;49.194;12.526;2023-10-08T07:51:49;16.50;99.90
18141;DHT22;9196;49.194;12.526;2023-10-08T07:54:21;16.50;99.90
18141;DHT22;9196;49.194;12.526;2023-10-08T07:56:49;16.40;99.90
18141;DHT22;9196;49.194;12.526;2023-10-08T07:59:17;16.50;99.90
18141;DHT22;9196;49.194;12.526;2023-10-08T08:01:44;16.40;99.90
18141;DHT22;9196;49.194;12.526;2023-10-08T08:04:11;16.40;99.90
18141;DHT22;9196;49.194;12.526;2023-10-08T08:06:47;16.40;99.90
18141;DHT22;9196;49.194;12.526;2023-10-08T08:09:16;16.50;99.90
18141;DHT22;9196;49.194;12.526;2023-10-08T08:11:47;16.50;99.90
18141;DHT22;9196;49.194;12.526;2023-10-08T08:14:14;16.60;99.90
18141;DHT22;9196;49.194;12.526;2023-10-08T08:16:43;16.60;99.90
18141;DHT22;9196;49.194;12.526;2023-10-08T08:19:14;16.70;99.90
18141;DHT22;9196;49.194;12.526;2023-10-08T08:21:42;16.60;99.90
18141;DHT22;9196;49.194;12.526;2023-10-08T08:24:11;16.70;99.90
18141;DHT22;9196;49.194;12.526;2023-10-08T08:26:39;16.70;99.90
18141;DHT22;9196;49.194;12.526;2023-10-08T08:29:11;16.70;99.90
18141;DHT22;9196;49.194;12.526;2023-10-08T08:31:41;16.70;99.90
18141;DHT22;9196;49.194;12.526;2023-10-08T08:34:11;16.70;99.90
18141;DHT22;9196;49.194;12.526;2023-10-08T08:36:45;16.70;99.90
18141;DHT22;9196;49.194;12.526;2023-10-08T08:39:15;16.80;99.90
18141;DHT22;9196;49.194;12.526;2023-10-08T08:41:59;16.80;99.90
18141;DHT22;9196;49.194;12.526;2023-10-08T08:44:29;16.80;99.90
18141;DHT22;9196;49.194;12.526;2023-10-08T08:46:58;16.90;99.90
18141;DHT22;9196;49.194;12.526;2023-10-08T08:49:30;16.90;99.90
18141;DHT22;9196;49.194;12.526;2023-10-08T08:51:59;16.90;99.90
18141;DHT22;9196;49.194;12.526;2023-10-08T08:54:27;16.90;99.90
18141;DHT22;9196;49.194;12.526;2023-10-08T08:56:56;16.90;99.90
18141;DHT22;9196;49.194;12.526;2023-10-08T08:59:24;17.00;99.90
18141;DHT22;9196;49.194;12.526;2023-10-08T09:01:53;17.10;99.90
18141;DHT22;9196;49.194;12.526;2023-10-08T09:04:28;17.20;99.90
18141;DHT22;9196;49.194;12.526;2023-10-08T09:06:56;17.30;99.90
18141;DHT22;9196;49.194;12.526;2023-10-08T09:09:31;17.40;99.90
18141;DHT22;9196;49.194;12.526;2023-10-08T09:11:58;17.30;99.90
18141;DHT22;9196;49.194;12.526;2023-10-08T09:14:27;17.30;99.90
18141;DHT22;9196;49.194;12.526;2023-10-08T09:16:56;17.30;99.90
18141;DHT22;9196;49.194;12.526;2023-10-08T09:19:25;17.30;99.90
18141;DHT22;9196;49.194;12.526;2023-10-08T09:22:02;17.20;99.90
18141;DHT22;9196;49.194;12.526;2023-10-08T09:24:30;17.20;99.90
18141;DHT22;9196;49.194;12.526;2023-10-08T09:26:59;17.20;99.90
18141;DHT22;9196;49.194;12.526;2023-10-08T09:29:27;17.20;99.90
18141;DHT22;9196;49.194;12.526;2023-10-08T09:31:58;17.10;99.90
18141;DHT22;9196;49.194;12.526;2023-10-08T09:34:29;17.20;99.90
18141;DHT22;9196;49.194;12.526;2023-10-08T09:36:57;17.30;99.90
18141;DHT22;9196;49.194;12.526;2023-10-08T09:39:26;17.30;99.90
18141;DHT22;9196;49.194;12.526;2023-10-08T09:41:54;17.40;99.90
18141;DHT22;9196;49.194;12.526;2023-10-08T09:44:22;17.60;99.90
18141;DHT22;9196;49.194;12.526;2023-10-08T09:46:52;17.60;99.90
18141;DHT22;9196;49.194;12.526;2023-10-08T09:49:28;17.80;99.90
18141;DHT22;9196;49.194;12.526;2023-10-08T09:51:59;17.80;99.90
18141;DHT22;9196;49.194;12.526;2023-10-08T09:54:29;17.90;99.90
18141;DHT22;9196;49.194;12.526;2023-10-08T09:56:59;17.80;99.90
18141;DHT22;9196;49.194;12.526;2023-10-08T09:59:29;17.80;99.90
18141;DHT22;9196;49.194;12.526;2023-10-08T10:01:56;17.70;99.90
18141;DHT22;9196;49.194;12.526;2023-10-08T10:04:26;17.60;99.90
18141;DHT22;9196;49.194;12.526;2023-10-08T10:06:57;17.70;99.90
18141;DHT22;9196;49.194;12.526;2023-10-08T10:09:25;17.70;99.90
18141;DHT22;9196;49.194;12.526;2023-10-08T10:11:54;17.70;99.90
18141;DHT22;9196;49.194;12.526;2023-10-08T10:14:22;17.80;99.90
18141;DHT22;9196;49.194;12.526;2023-10-08T10:17:08;17.80;99.90
18141;DHT22;9196;49.194;12.526;2023-10-08T10:19:38;17.80;99.90
18141;DHT22;9196;49.194;12.526;2023-10-08T10:22:13;17.80;99.90
18141;DHT22;9196;49.194;12.526;2023-10-08T10:24:42;17.80;99.90
18141;DHT22;9196;49.194;12.526;2023-10-08T10:27:11;17.90;99.90
18141;DHT22;9196;49.194;12.526;2023-10-08T10:29:40;17.90;99.90
18141;DHT22;9196;49.194;12.526;2023-10-08T10:32:10;18.00;99.90
18141;DHT22;9196;49.194;12.526;2023-10-08T10:34:40;18.10;99.90
18141;DHT22;9196;49.194;12.526;2023-10-08T10:37:07;18.10;99.90
18141;DHT22;9196;49.194;12.526;2023-10-08T10:39:51;18.10;99.90
18141;DHT22;9196;49.194;12.526;2023-10-08T10:42:20;18.20;99.90
18141;DHT22;9196;49.194;12.526;2023-10-08T10:44:48;18.30;99.90
18141;DHT22;9196;49.194;12.526;2023-10-08T10:47:19;18.30;99.90
18141;DHT22;9196;49.194;12.526;2023-10-08T10:49:54;18.40;99.90
18141;DHT22;9196;49.194;12.526;2023-10-08T10:52:36;18.40;99.90
18141;DHT22;9196;49.194;12.526;2023-10-08T10:55:13;18.50;99.90
18141;DHT22;9196;49.194;12.526;2023-10-08T10:57:57;18.70;99.90
18141;DHT22;9196;49.194;12.526;2023-10-08T11:00:30;18.70;99.90
18141;DHT22;9196;49.194;12.526;2023-10-08T11:03:23;18.80;99.90
18141;DHT22;9196;49.194;12.526;2023-10-08T11:05:54;18.90;99.90
18141;DHT22;9196;49.194;12.526;2023-10-08T11:08:25;19.00;99.90
18141;DHT22;9196;49.194;12.526;2023-10-08T11:10:59;18.90;99.90
18141;DHT22;9196;49.194;12.526;2023-10-08T11:13:33;18.90;99.90
18141;DHT22;9196;49.194;12.526;2023-10-08T11:16:05;18.80;99.90
18141;DHT22;9196;49.194;12.526;2023-10-08T11:18:33;18.70;99.90
18141;DHT22;9196;49.194;12.526;2023-10-08T11:21:08;18.70;99.90
18141;DHT22;9196;49.194;12.526;2023-10-08T11:23:45;18.70;99.90
18141;DHT22;9196;49.194;12.526;2023-10-08T11:26:25;18.70;99.90
18141;DHT22;9196;49.194;12.526;2023-10-08T11:29:05;18.60;99.90
18141;DHT22;9196;49.194;12.526;2023-10-08T11:31:40;18.50;99.90
18141;DHT22;9196;49.194;12.526;2023-10-08T11:34:07;18.50;99.90
18141;DHT22;9196;49.194;12.526;2023-10-08T11:36:40;18.40;99.90
18141;DHT22;9196;49.194;12.526;2023-10-08T11:39:18;18.50;99.90
18141;DHT22;9196;49.194;12.526;2023-10-08T11:41:56;18.40;99.90
18141;DHT22;9196;49.194;12.526;2023-10-08T11:44:23;18.50;99.90
18141;DHT22;9196;49.194;12.526;2023-10-08T11:46:56;18.50;99.90
18141;DHT22;9196;49.194;12.526;2023-10-08T11:49:30;18.50;99.90
18141;DHT22;9196;49.194;12.526;2023-10-08T11:52:03;18.50;99.90
18141;DHT22;9196;49.194;12.526;2023-10-08T11:54:30;18.50;99.90
18141;DHT22;9196;49.194;12.526;2023-10-08T11:56:59;18.40;99.90
18141;DHT22;9196;49.194;12.526;2023-10-08T11:59:27;18.40;99.90
18141;DHT22;9196;49.194;12.526;2023-10-08T12:01:55;18.30;99.90
18141;DHT22;9196;49.194;12.526;2023-10-08T12:04:22;18.30;99.90
18141;DHT22;9196;49.194;12.526;2023-10-08T12:06:48;18.20;99.90
18141;DHT22;9196;49.194;12.526;2023-10-08T12:09:19;18.20;99.90
18141;DHT22;9196;49.194;12.526;2023-10-08T12:11:47;18.10;99.90
18141;DHT22;9196;49.194;12.526;2023-10-08T12:14:14;18.10;99.90
18141;DHT22;9196;49.194;12.526;2023-10-08T12:16:41;18.00;99.90
18141;DHT22;9196;49.194;12.526;2023-10-08T12:19:11;18.00;99.90
18141;DHT22;9196;49.194;12.526;2023-10-08T12:21:42;18.00;99.90
18141;DHT22;9196;49.194;12.526;2023-10-08T12:24:11;18.00;99.90
18141;DHT22;9196;49.194;12.526;2023-10-08T12:26:40;18.00;99.90
18141;DHT22;9196;49.194;12.526;2023-10-08T12:29:11;18.00;99.90
18141;DHT22;9196;49.194;12.526;2023-10-08T12:31:40;18.00;99.90
18141;DHT22;9196;49.194;12.526;2023-10-08T12:34:06;18.00;99.90
18141;DHT22;9196;49.194;12.526;2023-10-08T12:36:37;18.00;99.90
18141;DHT22;9196;49.194;12.526;2023-10-08T12:39:04;18.00;99.90
18141;DHT22;9196;49.194;12.526;2023-10-08T12:41:42;18.00;99.90
18141;DHT22;9196;49.194;12.526;2023-10-08T12:44:09;17.60;99.90
18141;DHT22;9196;49.194;12.526;2023-10-08T12:46:36;17.40;99.90
18141;DHT22;9196;49.194;12.526;2023-10-08T12:49:03;17.20;99.90
18141;DHT22;9196;49.194;12.526;2023-10-08T12:51:30;17.00;99.90
18141;DHT22;9196;49.194;12.526;2023-10-08T12:53:59;16.80;99.90
18141;DHT22;9196;49.194;12.526;2023-10-08T12:56:29;16.60;99.90
18141;DHT22;9196;49.194;12.526;2023-10-08T12:59:03;16.40;99.90
18141;DHT22;9196;49.194;12.526;2023-10-08T13:01:32;16.20;99.90
18141;DHT22;9196;49.194;12.526;2023-10-08T13:04:01;16.20;99.90
18141;DHT22;9196;49.194;12.526;2023-10-08T13:06:33;16.10;99.90
18141;DHT22;9196;49.194;12.526;2023-10-08T13:09:03;16.00;99.90
18141;DHT22;9196;49.194;12.526;2023-10-08T13:11:35;15.90;99.90
18141;DHT22;9196;49.194;12.526;2023-10-08T13:14:06;15.80;99.90
18141;DHT22;9196;49.194;12.526;2023-10-08T13:16:32;15.80;99.90
18141;DHT22;9196;49.194;12.526;2023-10-08T13:19:03;15.80;99.90
18141;DHT22;9196;49.194;12.526;2023-10-08T13:21:33;15.70;99.90
18141;DHT22;9196;49.194;12.526;2023-10-08T13:24:09;15.70;99.90
18141;DHT22;9196;49.194;12.526;2023-10-08T13:26:42;15.70;99.90
18141;DHT22;9196;49.194;12.526;2023-10-08T13:29:14;15.70;99.90
18141;DHT22;9196;49.194;12.526;2023-10-08T13:31:43;15.80;99.90
18141;DHT22;9196;49.194;12.526;2023-10-08T13:34:11;15.80;99.90
18141;DHT22;9196;49.194;12.526;2023-10-08T13:36:38;15.70;99.90
18141;DHT22;9196;49.194;12.526;2023-10-08T13:39:05;15.70;99.90
18141;DHT22;9196;49.194;12.526;2023-10-08T13:41:35;15.60;99.90
18141;DHT22;9196;49.194;12.526;2023-10-08T13:44:04;15.60;99.90
18141;DHT22;9196;49.194;12.526;2023-10-08T13:46:33;15.50;99.90
18141;DHT22;9196;49.194;12.526;2023-10-08T13:49:02;15.40;99.90
18141;DHT22;9196;49.194;12.526;2023-10-08T13:51:31;15.30;99.90
18141;DHT22;9196;49.194;12.526;2023-10-08T13:54:00;15.20;99.90
18141;DHT22;9196;49.194;12.526;2023-10-08T13:56:29;15.20;99.90
18141;DHT22;9196;49.194;12.526;2023-10-08T13:58:56;15.10;99.90
18141;DHT22;9196;49.194;12.526;2023-10-08T14:01:29;14.90;99.90
18141;DHT22;9196;49.194;12.526;2023-10-08T14:04:00;14.90;99.90
18141;DHT22;9196;49.194;12.526;2023-10-08T14:06:31;15.00;99.90
18141;DHT22;9196;49.194;12.526;2023-10-08T14:08:58;15.00;99.90
18141;DHT22;9196;49.194;12.526;2023-10-08T14:11:26;14.90;99.90
18141;DHT22;9196;49.194;12.526;2023-10-08T14:13:56;15.00;99.90
18141;DHT22;9196;49.194;12.526;2023-10-08T14:16:24;15.00;99.90
18141;DHT22;9196;49.194;12.526;2023-10-08T14:18:54;15.10;99.90
18141;DHT22;9196;49.194;12.526;2023-10-08T14:21:26;15.20;99.90
18141;DHT22;9196;49.194;12.526;2023-10-08T14:23:56;15.20;99.90
18141;DHT22;9196;49.194;12.526;2023-10-08T14:26:28;15.30;99.90
18141;DHT22;9196;49.194;12.526;2023-10-08T14:29:01;15.10;99.90
18141;DHT22;9196;49.194;12.526;2023-10-08T14:31:33;15.00;99.90
18141;DHT22;9196;49.194;12.526;2023-10-08T14:34:04;15.00;99.90
18141;DHT22;9196;49.194;12.526;2023-10-08T14:36:56;14.80;99.90
18141;DHT22;9196;49.194;12.526;2023-10-08T14:39:40;14.80;99.90
18141;DHT22;9196;49.194;12.526;2023-10-08T14:42:26;14.80;99.90
18141;DHT22;9196;49.194;12.526;2023-10-08T14:45:16;14.80;99.90
18141;DHT22;9196;49.194;12.526;2023-10-08T14:47:44;14.80;99.90
18141;DHT22;9196;49.194;12.526;2023-10-08T14:50:11;14.70;99.90
18141;DHT22;9196;49.194;12.526;2023-10-08T14:52:43;14.60;99.90
18141;DHT22;9196;49.194;12.526;2023-10-08T14:55:10;14.50;99.90
18141;DHT22;9196;49.194;12.526;2023-10-08T14:57:37;14.30;99.90
18141;DHT22;9196;49.194;12.526;2023-10-08T15:00:05;14.20;99.90
18141;DHT22;9196;49.194;12.526;2023-10-08T15:02:32;14.10;99.90
18141;DHT22;9196;49.194;12.526;2023-10-08T15:04:59;14.10;99.90
18141;DHT22;9196;49.194;12.526;2023-10-08T15:07:26;14.10;99.90
18141;DHT22;9196;49.194;12.526;2023-10-08T15:09:54;14.00;99.90
18141;DHT22;9196;49.194;12.526;2023-10-08T15:12:23;14.10;99.90
18141;DHT22;9196;49.194;12.526;2023-10-08T15:14:50;14.10;99.90
18141;DHT22;9196;49.194;12.526;2023-10-08T15:17:17;14.10;99.90
18141;DHT22;9196;49.194;12.526;2023-10-08T15:19:44;14.10;99.90
18141;DHT22;9196;49.194;12.526;2023-10-08T15:22:12;14.20;99.90
18141;DHT22;9196;49.194;12.526;2023-10-08T15:24:39;14.20;99.90
18141;DHT22;9196;49.194;12.526;2023-10-08T15:27:07;14.20;99.90
18141;DHT22;9196;49.194;12.526;2023-10-08T15:29:36;14.10;99.90
18141;DHT22;9196;49.194;12.526;2023-10-08T15:32:03;14.00;99.90
18141;DHT22;9196;49.194;12.526;2023-10-08T15:34:30;14.00;99.90
18141;DHT22;9196;49.194;12.526;2023-10-08T15:36:58;14.00;99.90
18141;DHT22;9196;49.194;12.526;2023-10-08T15:39:24;14.00;99.90
18141;DHT22;9196;49.194;12.526;2023-10-08T15:41:54;14.00;99.90
18141;DHT22;9196;49.194;12.526;2023-10-08T15:44:23;13.90;99.90
18141;DHT22;9196;49.194;12.526;2023-10-08T15:46:50;14.00;99.90
18141;DHT22;9196;49.194;12.526;2023-10-08T15:49:17;14.10;99.90
18141;DHT22;9196;49.194;12.526;2023-10-08T15:51:45;14.00;99.90
18141;DHT22;9196;49.194;12.526;2023-10-08T15:54:12;14.10;99.90
18141;DHT22;9196;49.194;12.526;2023-10-08T15:56:39;14.10;99.90